sensor_id;sensor_type;location;lat;lon;timestamp;temperature;humidity
34726;DHT22;20951;50.818;4.344;2023-04-01T00:01:13;10.00;99.90
34726;DHT22;20951;50.818;4.344;2023-04-01T00:03:43;9.90;99.90
34726;DHT22;20951;50.818;4.344;2023-04-01T00:06:14;9.90;99.90
34726;DHT22;20951;50.818;4.344;2023-04-01T00:08:44;9.90;99.90
34726;DHT22;20951;50.818;4.344;2023-04-01T00:11:12;9.90;99.90
34726;DHT22;20951;50.818;4.344;2023-04-01T00:13:41;9.80;99.90
34726;DHT22;20951;50.818;4.344;2023-04-01T00:16:10;9.80;99.90
34726;DHT22;20951;50.818;4.344;2023-04-01T00:18:38;9.70;99.90
34726;DHT22;20951;50.818;4.344;2023-04-01T00:21:07;9.80;99.90
34726;DHT22;20951;50.818;4.344;2023-04-01T00:23:35;9.80;99.90
34726;DHT22;20951;50.818;4.344;2023-04-01T00:26:04;9.90;99.90
34726;DHT22;20951;50.818;4.344;2023-04-01T00:28:34;9.90;99.90
34726;DHT22;20951;50.818;4.344;2023-04-01T00:31:06;10.00;99.90
34726;DHT22;20951;50.818;4.344;2023-04-01T00:33:35;10.10;99.90
34726;DHT22;20951;50.818;4.344;2023-04-01T00:36:12;10.00;99.90
34726;DHT22;20951;50.818;4.344;2023-04-01T00:38:40;9.90;99.90
34726;DHT22;20951;50.818;4.344;2023-04-01T00:41:15;10.00;99.90
34726;DHT22;20951;50.818;4.344;2023-04-01T00:43:45;9.80;99.90
34726;DHT22;20951;50.818;4.344;2023-04-01T00:46:13;9.70;99.90
34726;DHT22;20951;50.818;4.344;2023-04-01T00:48:50;9.80;99.90
34726;DHT22;20951;50.818;4.344;2023-04-01T00:51:27;9.70;99.90
34726;DHT22;20951;50.818;4.344;2023-04-01T00:53:58;9.70;99.90
34726;DHT22;20951;50.818;4.344;2023-04-01T00:56:48;9.70;99.90
34726;DHT22;20951;50.818;4.344;2023-04-01T00:59:23;9.80;99.90
34726;DHT22;20951;50.818;4.344;2023-04-01T01:01:52;9.80;99.90
34726;DHT22;20951;50.818;4.344;2023-04-01T01:04:27;9.90;99.90
34726;DHT22;20951;50.818;4.344;2023-04-01T01:09:33;9.90;99.90
34726;DHT22;20951;50.818;4.344;2023-04-01T01:15:30;9.80;99.90
34726;DHT22;20951;50.818;4.344;2023-04-01T01:18:09;9.80;99.90
34726;DHT22;20951;50.818;4.344;2023-04-01T01:35:16;9.90;99.90
34726;DHT22;20951;50.818;4.344;2023-04-01T01:37:48;9.90;99.90
34726;DHT22;20951;50.818;4.344;2023-04-01T01:40:18;10.00;99.90
34726;DHT22;20951;50.818;4.344;2023-04-01T01:42:51;9.90;99.90
34726;DHT22;20951;50.818;4.344;2023-04-01T01:45:23;9.90;99.90
34726;DHT22;20951;50.818;4.344;2023-04-01T01:47:53;9.90;99.90
34726;DHT22;20951;50.818;4.344;2023-04-01T01:50:23;9.90;99.90
34726;DHT22;20951;50.818;4.344;2023-04-01T01:53:02;9.90;99.90
34726;DHT22;20951;50.818;4.344;2023-04-01T01:55:38;9.90;99.90
34726;DHT22;20951;50.818;4.344;2023-04-01T01:58:14;9.90;99.90
34726;DHT22;20951;50.818;4.344;2023-04-01T02:00:48;9.80;99.90
34726;DHT22;20951;50.818;4.344;2023-04-01T02:03:18;9.80;99.90
34726;DHT22;20951;50.818;4.344;2023-04-01T02:05:49;9.80;99.90
34726;DHT22;20951;50.818;4.344;2023-04-01T02:08:26;9.80;99.90
34726;DHT22;20951;50.818;4.344;2023-04-01T02:11:07;9.90;99.90
34726;DHT22;20951;50.818;4.344;2023-04-01T02:13:48;9.90;99.90
34726;DHT22;20951;50.818;4.344;2023-04-01T02:16:39;9.90;99.90
34726;DHT22;20951;50.818;4.344;2023-04-01T02:19:12;9.80;99.90
34726;DHT22;20951;50.818;4.344;2023-04-01T02:21:42;9.80;99.90
34726;DHT22;20951;50.818;4.344;2023-04-01T02:24:14;9.70;99.90
34726;DHT22;20951;50.818;4.344;2023-04-01T02:26:43;9.70;99.90
34726;DHT22;20951;50.818;4.344;2023-04-01T02:29:13;9.70;99.90
34726;DHT22;20951;50.818;4.344;2023-04-01T02:31:42;9.70;99.90
34726;DHT22;20951;50.818;4.344;2023-04-01T02:34:11;9.60;99.90
34726;DHT22;20951;50.818;4.344;2023-04-01T02:36:40;9.70;99.90
34726;DHT22;20951;50.818;4.344;2023-04-01T02:39:09;9.70;99.90
34726;DHT22;20951;50.818;4.344;2023-04-01T02:41:43;9.70;99.90
34726;DHT22;20951;50.818;4.344;2023-04-01T02:44:13;9.70;99.90
34726;DHT22;20951;50.818;4.344;2023-04-01T02:46:42;9.70;99.90
34726;DHT22;20951;50.818;4.344;2023-04-01T02:49:10;9.60;99.90
34726;DHT22;20951;50.818;4.344;2023-04-01T02:51:38;9.60;99.90
34726;DHT22;20951;50.818;4.344;2023-04-01T02:54:07;9.60;99.90
34726;DHT22;20951;50.818;4.344;2023-04-01T02:56:36;9.70;99.90
34726;DHT22;20951;50.818;4.344;2023-04-01T02:59:05;9.60;99.90
34726;DHT22;20951;50.818;4.344;2023-04-01T03:01:34;9.60;99.90
34726;DHT22;20951;50.818;4.344;2023-04-01T03:04:03;9.60;99.90
34726;DHT22;20951;50.818;4.344;2023-04-01T03:06:32;9.60;99.90
34726;DHT22;20951;50.818;4.344;2023-04-01T03:09:00;9.60;99.90
34726;DHT22;20951;50.818;4.344;2023-04-01T03:11:29;9.60;99.90
34726;DHT22;20951;50.818;4.344;2023-04-01T03:13:58;9.60;99.90
34726;DHT22;20951;50.818;4.344;2023-04-01T03:16:27;9.60;99.90
34726;DHT22;20951;50.818;4.344;2023-04-01T03:18:55;9.60;99.90
34726;DHT22;20951;50.818;4.344;2023-04-01T03:21:26;9.70;99.90
34726;DHT22;20951;50.818;4.344;2023-04-01T03:23:55;9.70;99.90
34726;DHT22;20951;50.818;4.344;2023-04-01T03:26:25;9.70;99.90
34726;DHT22;20951;50.818;4.344;2023-04-01T03:28:54;9.60;99.90
34726;DHT22;20951;50.818;4.344;2023-04-01T03:31:23;9.60;99.90
34726;DHT22;20951;50.818;4.344;2023-04-01T03:33:51;9.60;99.90
34726;DHT22;20951;50.818;4.344;2023-04-01T03:36:20;9.60;99.90
34726;DHT22;20951;50.818;4.344;2023-04-01T03:38:49;9.60;99.90
34726;DHT22;20951;50.818;4.344;2023-04-01T03:41:18;9.60;99.90
34726;DHT22;20951;50.818;4.344;2023-04-01T03:43:46;9.50;99.90
34726;DHT22;20951;50.818;4.344;2023-04-01T03:46:18;9.70;99.90
34726;DHT22;20951;50.818;4.344;2023-04-01T03:48:49;9.80;99.90
34726;DHT22;20951;50.818;4.344;2023-04-01T03:51:19;9.80;99.90
34726;DHT22;20951;50.818;4.344;2023-04-01T03:53:48;9.70;99.90
34726;DHT22;20951;50.818;4.344;2023-04-01T03:56:17;9.80;99.90
34726;DHT22;20951;50.818;4.344;2023-04-01T03:58:46;9.70;99.90
34726;DHT22;20951;50.818;4.344;2023-04-01T04:01:21;9.70;99.90
34726;DHT22;20951;50.818;4.344;2023-04-01T04:03:50;9.80;99.90
34726;DHT22;20951;50.818;4.344;2023-04-01T04:06:19;9.70;99.90
34726;DHT22;20951;50.818;4.344;2023-04-01T04:08:48;9.70;99.90
34726;DHT22;20951;50.818;4.344;2023-04-01T04:11:18;9.70;99.90
34726;DHT22;20951;50.818;4.344;2023-04-01T04:13:46;9.60;99.90
34726;DHT22;20951;50.818;4.344;2023-04-01T04:16:18;9.50;99.90
34726;DHT22;20951;50.818;4.344;2023-04-01T04:18:48;9.60;99.90
34726;DHT22;20951;50.818;4.344;2023-04-01T04:21:17;9.60;99.90
34726;DHT22;20951;50.818;4.344;2023-04-01T04:23:46;9.60;99.90
34726;DHT22;20951;50.818;4.344;2023-04-01T04:26:15;9.60;99.90
34726;DHT22;20951;50.818;4.344;2023-04-01T04:28:43;9.60;99.90
34726;DHT22;20951;50.818;4.344;2023-04-01T04:31:12;9.70;99.90
34726;DHT22;20951;50.818;4.344;2023-04-01T04:33:44;9.80;99.90
34726;DHT22;20951;50.818;4.344;2023-04-01T04:36:13;9.80;99.90
34726;DHT22;20951;50.818;4.344;2023-04-01T04:38:41;9.70;99.90
34726;DHT22;20951;50.818;4.344;2023-04-01T04:41:14;9.70;99.90
34726;DHT22;20951;50.818;4.344;2023-04-01T04:43:48;9.60;99.90
34726;DHT22;20951;50.818;4.344;2023-04-01T04:46:17;9.60;99.90
34726;DHT22;20951;50.818;4.344;2023-04-01T04:48:45;9.60;99.90
34726;DHT22;20951;50.818;4.344;2023-04-01T04:51:15;9.60;99.90
34726;DHT22;20951;50.818;4.344;2023-04-01T04:53:43;9.60;99.90
34726;DHT22;20951;50.818;4.344;2023-04-01T04:56:12;9.60;99.90
34726;DHT22;20951;50.818;4.344;2023-04-01T04:58:40;9.60;99.90
34726;DHT22;20951;50.818;4.344;2023-04-01T05:01:13;9.70;99.90
34726;DHT22;20951;50.818;4.344;2023-04-01T05:03:42;9.70;99.90
34726;DHT22;20951;50.818;4.344;2023-04-01T05:06:13;9.60;99.90
34726;DHT22;20951;50.818;4.344;2023-04-01T05:08:43;9.60;99.90
34726;DHT22;20951;50.818;4.344;2023-04-01T05:11:16;9.60;99.90
34726;DHT22;20951;50.818;4.344;2023-04-01T05:13:45;9.70;99.90
34726;DHT22;20951;50.818;4.344;2023-04-01T05:16:16;9.70;99.90
34726;DHT22;20951;50.818;4.344;2023-04-01T05:18:45;9.70;99.90
34726;DHT22;20951;50.818;4.344;2023-04-01T05:21:15;9.70;99.90
34726;DHT22;20951;50.818;4.344;2023-04-01T05:23:44;9.70;99.90
34726;DHT22;20951;50.818;4.344;2023-04-01T05:26:13;9.60;99.90
34726;DHT22;20951;50.818;4.344;2023-04-01T05:28:41;9.60;99.90
34726;DHT22;20951;50.818;4.344;2023-04-01T05:31:10;9.60;99.90
34726;DHT22;20951;50.818;4.344;2023-04-01T05:33:38;9.50;99.90
34726;DHT22;20951;50.818;4.344;2023-04-01T05:36:12;9.50;99.90
34726;DHT22;20951;50.818;4.344;2023-04-01T05:38:42;9.50;99.90
34726;DHT22;20951;50.818;4.344;2023-04-01T05:41:12;9.60;99.90
34726;DHT22;20951;50.818;4.344;2023-04-01T05:43:41;9.60;99.90
34726;DHT22;20951;50.818;4.344;2023-04-01T05:46:10;9.60;99.90
34726;DHT22;20951;50.818;4.344;2023-04-01T05:48:38;9.60;99.90
34726;DHT22;20951;50.818;4.344;2023-04-01T05:51:11;9.60;99.90
34726;DHT22;20951;50.818;4.344;2023-04-01T05:53:40;9.50;99.90
34726;DHT22;20951;50.818;4.344;2023-04-01T05:56:09;9.40;99.90
34726;DHT22;20951;50.818;4.344;2023-04-01T05:58:38;9.50;99.90
34726;DHT22;20951;50.818;4.344;2023-04-01T06:01:09;9.40;99.90
34726;DHT22;20951;50.818;4.344;2023-04-01T06:03:38;9.50;99.90
34726;DHT22;20951;50.818;4.344;2023-04-01T06:06:14;9.50;99.90
34726;DHT22;20951;50.818;4.344;2023-04-01T06:08:42;9.60;99.90
34726;DHT22;20951;50.818;4.344;2023-04-01T06:11:18;9.60;99.90
34726;DHT22;20951;50.818;4.344;2023-04-01T06:17:19;9.60;99.90
34726;DHT22;20951;50.818;4.344;2023-04-01T06:23:13;9.50;99.90
34726;DHT22;20951;50.818;4.344;2023-04-01T06:26:02;9.50;99.90
34726;DHT22;20951;50.818;4.344;2023-04-01T06:28:40;9.50;99.90
34726;DHT22;20951;50.818;4.344;2023-04-01T06:31:20;9.50;99.90
34726;DHT22;20951;50.818;4.344;2023-04-01T06:37:25;9.50;99.90
34726;DHT22;20951;50.818;4.344;2023-04-01T06:46:15;9.60;99.90
34726;DHT22;20951;50.818;4.344;2023-04-01T06:54:18;9.50;99.90
34726;DHT22;20951;50.818;4.344;2023-04-01T06:56:51;9.60;99.90
34726;DHT22;20951;50.818;4.344;2023-04-01T06:59:26;9.50;99.90
34726;DHT22;20951;50.818;4.344;2023-04-01T07:02:05;9.70;99.90
34726;DHT22;20951;50.818;4.344;2023-04-01T07:04:46;9.70;99.90
34726;DHT22;20951;50.818;4.344;2023-04-01T07:10:15;9.80;99.90
34726;DHT22;20951;50.818;4.344;2023-04-01T07:12:49;9.80;99.90
34726;DHT22;20951;50.818;4.344;2023-04-01T07:15:28;9.70;99.90
34726;DHT22;20951;50.818;4.344;2023-04-01T07:18:03;9.70;99.90
34726;DHT22;20951;50.818;4.344;2023-04-01T07:20:35;9.70;99.90
34726;DHT22;20951;50.818;4.344;2023-04-01T07:23:06;9.80;99.90
34726;DHT22;20951;50.818;4.344;2023-04-01T07:25:43;9.80;99.90
34726;DHT22;20951;50.818;4.344;2023-04-01T07:28:15;9.80;99.90
34726;DHT22;20951;50.818;4.344;2023-04-01T07:31:05;9.80;99.90
34726;DHT22;20951;50.818;4.344;2023-04-01T07:36:39;9.90;99.90
34726;DHT22;20951;50.818;4.344;2023-04-01T07:45:51;9.80;99.90
34726;DHT22;20951;50.818;4.344;2023-04-01T07:50:46;10.00;99.90
34726;DHT22;20951;50.818;4.344;2023-04-01T07:53:38;10.00;99.90
34726;DHT22;20951;50.818;4.344;2023-04-01T07:56:25;9.90;99.90
34726;DHT22;20951;50.818;4.344;2023-04-01T07:59:05;10.00;99.90
34726;DHT22;20951;50.818;4.344;2023-04-01T08:01:47;10.00;99.90
34726;DHT22;20951;50.818;4.344;2023-04-01T08:07:04;10.00;99.90
34726;DHT22;20951;50.818;4.344;2023-04-01T08:15:28;9.80;99.90
34726;DHT22;20951;50.818;4.344;2023-04-01T08:18:17;9.90;99.90
34726;DHT22;20951;50.818;4.344;2023-04-01T08:20:58;9.80;99.90
34726;DHT22;20951;50.818;4.344;2023-04-01T08:23:30;9.90;99.90
34726;DHT22;20951;50.818;4.344;2023-04-01T08:28:54;10.00;99.90
34726;DHT22;20951;50.818;4.344;2023-04-01T08:34:15;10.20;99.90
34726;DHT22;20951;50.818;4.344;2023-04-01T08:36:50;10.20;99.90
34726;DHT22;20951;50.818;4.344;2023-04-01T08:39:37;10.20;99.90
34726;DHT22;20951;50.818;4.344;2023-04-01T08:48:39;9.90;99.90
34726;DHT22;20951;50.818;4.344;2023-04-01T08:51:37;10.00;99.90
34726;DHT22;20951;50.818;4.344;2023-04-01T08:54:34;10.00;99.90
34726;DHT22;20951;50.818;4.344;2023-04-01T09:05:47;10.00;99.90
34726;DHT22;20951;50.818;4.344;2023-04-01T09:08:37;10.00;99.90
34726;DHT22;20951;50.818;4.344;2023-04-01T09:11:42;10.10;99.90
34726;DHT22;20951;50.818;4.344;2023-04-01T09:28:57;10.30;99.90
34726;DHT22;20951;50.818;4.344;2023-04-01T09:34:55;10.50;99.90
34726;DHT22;20951;50.818;4.344;2023-04-01T09:40:17;10.40;99.90
34726;DHT22;20951;50.818;4.344;2023-04-01T09:46:04;10.50;99.90
34726;DHT22;20951;50.818;4.344;2023-04-01T09:48:59;10.50;99.90
34726;DHT22;20951;50.818;4.344;2023-04-01T09:51:45;10.60;99.90
34726;DHT22;20951;50.818;4.344;2023-04-01T09:57:22;10.80;99.90
34726;DHT22;20951;50.818;4.344;2023-04-01T10:00:31;10.70;99.90
34726;DHT22;20951;50.818;4.344;2023-04-01T10:17:40;10.70;99.90
34726;DHT22;20951;50.818;4.344;2023-04-01T10:34:29;10.60;99.90
34726;DHT22;20951;50.818;4.344;2023-04-01T10:40:26;10.50;99.90
34726;DHT22;20951;50.818;4.344;2023-04-01T10:55:08;10.70;99.90
34726;DHT22;20951;50.818;4.344;2023-04-01T11:12:37;11.00;99.90
34726;DHT22;20951;50.818;4.344;2023-04-01T11:15:20;11.00;99.90
34726;DHT22;20951;50.818;4.344;2023-04-01T11:18:12;11.00;99.90
34726;DHT22;20951;50.818;4.344;2023-04-01T11:26:32;10.90;99.90
34726;DHT22;20951;50.818;4.344;2023-04-01T11:43:01;10.70;99.90
34726;DHT22;20951;50.818;4.344;2023-04-01T11:45:46;10.70;99.90
34726;DHT22;20951;50.818;4.344;2023-04-01T12:05:43;10.90;99.90
34726;DHT22;20951;50.818;4.344;2023-04-01T12:08:41;11.00;99.90
34726;DHT22;20951;50.818;4.344;2023-04-01T12:17:03;11.10;99.90
34726;DHT22;20951;50.818;4.344;2023-04-01T12:23:50;11.20;99.90
34726;DHT22;20951;50.818;4.344;2023-04-01T12:34:38;10.90;99.90
34726;DHT22;20951;50.818;4.344;2023-04-01T12:40:05;10.90;99.90
34726;DHT22;20951;50.818;4.344;2023-04-01T12:43:46;10.90;99.90
34726;DHT22;20951;50.818;4.344;2023-04-01T12:54:14;10.70;99.90
34726;DHT22;20951;50.818;4.344;2023-04-01T12:57:32;10.60;99.90
34726;DHT22;20951;50.818;4.344;2023-04-01T13:10:50;10.70;99.90
34726;DHT22;20951;50.818;4.344;2023-04-01T13:16:20;10.70;99.90
34726;DHT22;20951;50.818;4.344;2023-04-01T13:24:45;10.60;99.90
34726;DHT22;20951;50.818;4.344;2023-04-01T13:27:39;10.50;99.90
34726;DHT22;20951;50.818;4.344;2023-04-01T13:42:05;10.60;99.90
34726;DHT22;20951;50.818;4.344;2023-04-01T13:44:49;10.60;99.90
34726;DHT22;20951;50.818;4.344;2023-04-01T14:01:19;10.50;99.90
34726;DHT22;20951;50.818;4.344;2023-04-01T14:17:29;10.70;99.90
34726;DHT22;20951;50.818;4.344;2023-04-01T14:31:51;10.90;99.90
34726;DHT22;20951;50.818;4.344;2023-04-01T14:38:27;10.90;99.90
34726;DHT22;20951;50.818;4.344;2023-04-01T14:43:35;10.90;99.90
34726;DHT22;20951;50.818;4.344;2023-04-01T14:46:33;10.80;99.90
34726;DHT22;20951;50.818;4.344;2023-04-01T14:52:08;10.70;99.90
34726;DHT22;20951;50.818;4.344;2023-04-01T14:54:41;10.70;99.90
34726;DHT22;20951;50.818;4.344;2023-04-01T14:57:23;10.80;99.90
34726;DHT22;20951;50.818;4.344;2023-04-01T15:36:52;10.40;99.90
34726;DHT22;20951;50.818;4.344;2023-04-01T15:39:30;10.50;99.90
34726;DHT22;20951;50.818;4.344;2023-04-01T15:42:24;10.30;99.90
34726;DHT22;20951;50.818;4.344;2023-04-01T15:45:13;10.30;99.90
34726;DHT22;20951;50.818;4.344;2023-04-01T15:50:28;10.30;99.90
34726;DHT22;20951;50.818;4.344;2023-04-01T15:53:45;10.40;99.90
34726;DHT22;20951;50.818;4.344;2023-04-01T15:58:52;10.20;99.90
34726;DHT22;20951;50.818;4.344;2023-04-01T16:01:44;10.20;99.90
34726;DHT22;20951;50.818;4.344;2023-04-01T16:07:10;10.10;99.90
34726;DHT22;20951;50.818;4.344;2023-04-01T16:09:43;10.00;99.90
34726;DHT22;20951;50.818;4.344;2023-04-01T16:12:17;9.90;99.90
34726;DHT22;20951;50.818;4.344;2023-04-01T16:23:42;9.90;99.90
34726;DHT22;20951;50.818;4.344;2023-04-01T16:37:52;9.90;99.90
34726;DHT22;20951;50.818;4.344;2023-04-01T16:40:37;10.00;99.90
34726;DHT22;20951;50.818;4.344;2023-04-01T16:45:54;10.00;99.90
34726;DHT22;20951;50.818;4.344;2023-04-01T16:48:45;10.00;99.90
34726;DHT22;20951;50.818;4.344;2023-04-01T16:51:18;9.90;99.90
34726;DHT22;20951;50.818;4.344;2023-04-01T16:53:52;9.90;99.90
34726;DHT22;20951;50.818;4.344;2023-04-01T16:56:24;9.90;99.90
34726;DHT22;20951;50.818;4.344;2023-04-01T17:04:49;9.90;99.90
34726;DHT22;20951;50.818;4.344;2023-04-01T17:10:22;9.80;99.90
34726;DHT22;20951;50.818;4.344;2023-04-01T17:21:28;9.90;99.90
34726;DHT22;20951;50.818;4.344;2023-04-01T17:37:45;10.10;99.90
34726;DHT22;20951;50.818;4.344;2023-04-01T17:57:54;9.90;99.90
34726;DHT22;20951;50.818;4.344;2023-04-01T18:06:10;10.00;99.90
34726;DHT22;20951;50.818;4.344;2023-04-01T18:19:18;9.80;99.90
34726;DHT22;20951;50.818;4.344;2023-04-01T18:21:48;9.80;99.90
34726;DHT22;20951;50.818;4.344;2023-04-01T18:24:27;9.80;99.90
34726;DHT22;20951;50.818;4.344;2023-04-01T18:27:15;9.80;99.90
34726;DHT22;20951;50.818;4.344;2023-04-01T18:29:54;9.70;99.90
34726;DHT22;20951;50.818;4.344;2023-04-01T18:37:54;9.60;99.90
34726;DHT22;20951;50.818;4.344;2023-04-01T18:40:38;9.60;99.90
34726;DHT22;20951;50.818;4.344;2023-04-01T18:43:18;9.50;99.90
34726;DHT22;20951;50.818;4.344;2023-04-01T18:46:20;9.60;99.90
34726;DHT22;20951;50.818;4.344;2023-04-01T18:49:08;9.60;99.90
34726;DHT22;20951;50.818;4.344;2023-04-01T18:51:44;9.60;99.90
34726;DHT22;20951;50.818;4.344;2023-04-01T18:54:27;9.60;99.90
34726;DHT22;20951;50.818;4.344;2023-04-01T18:57:15;9.60;99.90
34726;DHT22;20951;50.818;4.344;2023-04-01T19:00:19;9.60;99.90
34726;DHT22;20951;50.818;4.344;2023-04-01T19:02:50;9.60;99.90
34726;DHT22;20951;50.818;4.344;2023-04-01T19:05:32;9.60;99.90
34726;DHT22;20951;50.818;4.344;2023-04-01T19:11:15;9.60;99.90
34726;DHT22;20951;50.818;4.344;2023-04-01T19:16:45;9.50;99.90
34726;DHT22;20951;50.818;4.344;2023-04-01T19:19:34;9.50;99.90
34726;DHT22;20951;50.818;4.344;2023-04-01T19:27:50;9.40;99.90
34726;DHT22;20951;50.818;4.344;2023-04-01T19:30:21;9.40;99.90
34726;DHT22;20951;50.818;4.344;2023-04-01T19:38:40;9.30;99.90
34726;DHT22;20951;50.818;4.344;2023-04-01T19:44:16;9.40;99.90
34726;DHT22;20951;50.818;4.344;2023-04-01T19:47:05;9.30;99.90
34726;DHT22;20951;50.818;4.344;2023-04-01T19:49:42;9.40;99.90
34726;DHT22;20951;50.818;4.344;2023-04-01T19:52:41;9.30;99.90
34726;DHT22;20951;50.818;4.344;2023-04-01T20:00:53;9.50;99.90
34726;DHT22;20951;50.818;4.344;2023-04-01T20:06:15;9.40;99.90
34726;DHT22;20951;50.818;4.344;2023-04-01T20:08:57;9.40;99.90
34726;DHT22;20951;50.818;4.344;2023-04-01T20:11:30;9.40;99.90
34726;DHT22;20951;50.818;4.344;2023-04-01T20:14:06;9.40;99.90
34726;DHT22;20951;50.818;4.344;2023-04-01T20:19:10;9.40;99.90
34726;DHT22;20951;50.818;4.344;2023-04-01T20:21:46;9.30;99.90
34726;DHT22;20951;50.818;4.344;2023-04-01T20:26:42;9.30;99.90
34726;DHT22;20951;50.818;4.344;2023-04-01T20:30:12;9.30;99.90
34726;DHT22;20951;50.818;4.344;2023-04-01T20:32:43;9.20;99.90
34726;DHT22;20951;50.818;4.344;2023-04-01T20:35:30;9.30;99.90
34726;DHT22;20951;50.818;4.344;2023-04-01T20:39:14;9.30;99.90
34726;DHT22;20951;50.818;4.344;2023-04-01T20:44:13;9.30;99.90
34726;DHT22;20951;50.818;4.344;2023-04-01T20:50:06;9.40;99.90
34726;DHT22;20951;50.818;4.344;2023-04-01T20:58:38;9.30;99.90
34726;DHT22;20951;50.818;4.344;2023-04-01T21:10:06;9.40;99.90
34726;DHT22;20951;50.818;4.344;2023-04-01T21:15:39;9.40;99.90
34726;DHT22;20951;50.818;4.344;2023-04-01T21:21:16;9.40;99.90
34726;DHT22;20951;50.818;4.344;2023-04-01T21:29:47;9.50;99.90
34726;DHT22;20951;50.818;4.344;2023-04-01T21:32:41;9.50;99.90
34726;DHT22;20951;50.818;4.344;2023-04-01T22:11:01;9.50;99.90
34726;DHT22;20951;50.818;4.344;2023-04-01T22:13:45;9.50;99.90
34726;DHT22;20951;50.818;4.344;2023-04-01T22:19:01;9.50;99.90
34726;DHT22;20951;50.818;4.344;2023-04-01T22:22:31;9.60;99.90
34726;DHT22;20951;50.818;4.344;2023-04-01T22:30:02;9.70;99.90
34726;DHT22;20951;50.818;4.344;2023-04-01T22:32:43;9.70;99.90
34726;DHT22;20951;50.818;4.344;2023-04-01T22:35:16;9.70;99.90
34726;DHT22;20951;50.818;4.344;2023-04-01T22:40:37;9.70;99.90
34726;DHT22;20951;50.818;4.344;2023-04-01T22:43:15;9.60;99.90
34726;DHT22;20951;50.818;4.344;2023-04-01T22:51:17;9.50;99.90
34726;DHT22;20951;50.818;4.344;2023-04-01T22:56:35;9.50;99.90
34726;DHT22;20951;50.818;4.344;2023-04-01T22:59:14;9.50;99.90
34726;DHT22;20951;50.818;4.344;2023-04-01T23:01:58;9.40;99.90
34726;DHT22;20951;50.818;4.344;2023-04-01T23:04:31;9.40;99.90
34726;DHT22;20951;50.818;4.344;2023-04-01T23:07:01;9.50;99.90
34726;DHT22;20951;50.818;4.344;2023-04-01T23:09:29;9.60;99.90
34726;DHT22;20951;50.818;4.344;2023-04-01T23:12:23;9.60;99.90
34726;DHT22;20951;50.818;4.344;2023-04-01T23:14:53;9.60;99.90
34726;DHT22;20951;50.818;4.344;2023-04-01T23:20:54;9.60;99.90
34726;DHT22;20951;50.818;4.344;2023-04-01T23:29:02;9.50;99.90
34726;DHT22;20951;50.818;4.344;2023-04-01T23:34:21;9.40;99.90
34726;DHT22;20951;50.818;4.344;2023-04-01T23:36:53;9.40;99.90
34726;DHT22;20951;50.818;4.344;2023-04-01T23:42:02;9.30;99.90
34726;DHT22;20951;50.818;4.344;2023-04-01T23:44:29;9.30;99.90
34726;DHT22;20951;50.818;4.344;2023-04-01T23:46:57;9.40;99.90
34726;DHT22;20951;50.818;4.344;2023-04-01T23:49:30;9.40;99.90
34726;DHT22;20951;50.818;4.344;2023-04-01T23:52:16;9.30;99.90
34726;DHT22;20951;50.818;4.344;2023-04-01T23:57:30;9.50;99.90
